sensor_id;sensor_type;location;lat;lon;timestamp;P1;durP1;ratioP1;P2;durP2;ratioP2
8113;SDS011;4099;52.684;9.918;2022-11-15T00:02:21;18.60;;;13.80;;
8113;SDS011;4099;52.684;9.918;2022-11-15T00:07:47;19.37;;;13.97;;
8113;SDS011;4099;52.684;9.918;2022-11-15T00:13:08;17.80;;;12.80;;
8113;SDS011;4099;52.684;9.918;2022-11-15T00:18:35;18.07;;;12.90;;
8113;SDS011;4099;52.684;9.918;2022-11-15T00:24:00;17.87;;;12.80;;
8113;SDS011;4099;52.684;9.918;2022-11-15T00:29:23;16.87;;;12.77;;
8113;SDS011;4099;52.684;9.918;2022-11-15T00:34:44;17.77;;;12.90;;
8113;SDS011;4099;52.684;9.918;2022-11-15T00:40:09;15.20;;;11.97;;
8113;SDS011;4099;52.684;9.918;2022-11-15T00:45:33;16.00;;;11.97;;
8113;SDS011;4099;52.684;9.918;2022-11-15T00:50:55;16.57;;;12.60;;
8113;SDS011;4099;52.684;9.918;2022-11-15T00:56:17;17.50;;;12.20;;
8113;SDS011;4099;52.684;9.918;2022-11-15T01:01:39;15.43;;;11.27;;
8113;SDS011;4099;52.684;9.918;2022-11-15T01:07:00;17.53;;;12.23;;
8113;SDS011;4099;52.684;9.918;2022-11-15T01:12:23;17.53;;;11.70;;
8113;SDS011;4099;52.684;9.918;2022-11-15T01:17:44;16.97;;;13.20;;
8113;SDS011;4099;52.684;9.918;2022-11-15T01:23:06;17.40;;;12.30;;
8113;SDS011;4099;52.684;9.918;2022-11-15T01:28:31;19.33;;;12.60;;
8113;SDS011;4099;52.684;9.918;2022-11-15T01:33:53;15.13;;;12.27;;
8113;SDS011;4099;52.684;9.918;2022-11-15T01:39:15;21.73;;;13.87;;
8113;SDS011;4099;52.684;9.918;2022-11-15T01:44:49;17.93;;;12.80;;
8113;SDS011;4099;52.684;9.918;2022-11-15T01:50:17;16.23;;;12.53;;
8113;SDS011;4099;52.684;9.918;2022-11-15T01:55:47;16.47;;;11.73;;
8113;SDS011;4099;52.684;9.918;2022-11-15T02:01:10;17.47;;;12.43;;
8113;SDS011;4099;52.684;9.918;2022-11-15T02:06:38;16.97;;;12.07;;
8113;SDS011;4099;52.684;9.918;2022-11-15T02:12:02;22.63;;;13.43;;
8113;SDS011;4099;52.684;9.918;2022-11-15T02:17:33;18.27;;;12.97;;
8113;SDS011;4099;52.684;9.918;2022-11-15T02:29:10;16.47;;;12.53;;
8113;SDS011;4099;52.684;9.918;2022-11-15T02:34:43;15.43;;;12.33;;
8113;SDS011;4099;52.684;9.918;2022-11-15T02:40:13;16.60;;;12.43;;
8113;SDS011;4099;52.684;9.918;2022-11-15T02:45:47;17.37;;;12.97;;
8113;SDS011;4099;52.684;9.918;2022-11-15T02:51:22;16.93;;;11.93;;
8113;SDS011;4099;52.684;9.918;2022-11-15T02:56:54;15.77;;;11.87;;
8113;SDS011;4099;52.684;9.918;2022-11-15T03:02:22;17.83;;;12.43;;
8113;SDS011;4099;52.684;9.918;2022-11-15T03:08:02;14.67;;;11.50;;
8113;SDS011;4099;52.684;9.918;2022-11-15T03:13:33;15.50;;;11.70;;
8113;SDS011;4099;52.684;9.918;2022-11-15T03:18:59;13.87;;;11.63;;
8113;SDS011;4099;52.684;9.918;2022-11-15T03:24:29;17.20;;;12.63;;
8113;SDS011;4099;52.684;9.918;2022-11-15T03:29:56;16.63;;;12.37;;
8113;SDS011;4099;52.684;9.918;2022-11-15T03:35:24;16.07;;;11.93;;
8113;SDS011;4099;52.684;9.918;2022-11-15T03:40:51;15.53;;;11.67;;
8113;SDS011;4099;52.684;9.918;2022-11-15T03:46:21;15.87;;;11.87;;
8113;SDS011;4099;52.684;9.918;2022-11-15T03:51:47;18.90;;;12.17;;
8113;SDS011;4099;52.684;9.918;2022-11-15T03:57:11;16.20;;;12.60;;
8113;SDS011;4099;52.684;9.918;2022-11-15T04:02:34;16.60;;;11.97;;
8113;SDS011;4099;52.684;9.918;2022-11-15T04:07:56;17.80;;;12.70;;
8113;SDS011;4099;52.684;9.918;2022-11-15T04:13:20;15.53;;;12.53;;
8113;SDS011;4099;52.684;9.918;2022-11-15T04:18:44;16.03;;;11.83;;
8113;SDS011;4099;52.684;9.918;2022-11-15T04:24:28;15.60;;;12.23;;
8113;SDS011;4099;52.684;9.918;2022-11-15T04:29:54;17.90;;;11.97;;
8113;SDS011;4099;52.684;9.918;2022-11-15T04:35:18;14.60;;;11.43;;
8113;SDS011;4099;52.684;9.918;2022-11-15T04:40:39;16.77;;;11.97;;
8113;SDS011;4099;52.684;9.918;2022-11-15T04:46:02;15.40;;;12.13;;
8113;SDS011;4099;52.684;9.918;2022-11-15T04:51:26;15.07;;;12.27;;
8113;SDS011;4099;52.684;9.918;2022-11-15T04:56:47;16.30;;;12.00;;
8113;SDS011;4099;52.684;9.918;2022-11-15T05:02:10;15.57;;;12.17;;
8113;SDS011;4099;52.684;9.918;2022-11-15T05:07:32;18.93;;;13.67;;
8113;SDS011;4099;52.684;9.918;2022-11-15T05:12:54;18.60;;;13.43;;
8113;SDS011;4099;52.684;9.918;2022-11-15T05:18:16;20.13;;;13.23;;
8113;SDS011;4099;52.684;9.918;2022-11-15T05:23:38;26.93;;;16.10;;
8113;SDS011;4099;52.684;9.918;2022-11-15T05:29:01;25.07;;;15.57;;
8113;SDS011;4099;52.684;9.918;2022-11-15T05:34:24;21.17;;;15.20;;
8113;SDS011;4099;52.684;9.918;2022-11-15T05:39:48;17.87;;;13.37;;
8113;SDS011;4099;52.684;9.918;2022-11-15T05:45:11;18.60;;;12.10;;
8113;SDS011;4099;52.684;9.918;2022-11-15T05:50:35;20.67;;;12.63;;
8113;SDS011;4099;52.684;9.918;2022-11-15T05:56:05;19.17;;;12.20;;
8113;SDS011;4099;52.684;9.918;2022-11-15T06:01:28;18.90;;;12.93;;
8113;SDS011;4099;52.684;9.918;2022-11-15T06:06:57;19.63;;;14.10;;
8113;SDS011;4099;52.684;9.918;2022-11-15T06:12:20;14.20;;;11.60;;
8113;SDS011;4099;52.684;9.918;2022-11-15T06:17:41;13.63;;;11.60;;
8113;SDS011;4099;52.684;9.918;2022-11-15T06:23:07;15.63;;;11.47;;
8113;SDS011;4099;52.684;9.918;2022-11-15T06:28:30;13.73;;;11.40;;
8113;SDS011;4099;52.684;9.918;2022-11-15T06:33:52;14.10;;;11.07;;
8113;SDS011;4099;52.684;9.918;2022-11-15T06:39:17;13.10;;;11.03;;
8113;SDS011;4099;52.684;9.918;2022-11-15T06:44:54;13.77;;;11.40;;
8113;SDS011;4099;52.684;9.918;2022-11-15T06:50:33;14.73;;;11.07;;
8113;SDS011;4099;52.684;9.918;2022-11-15T06:55:59;19.23;;;12.10;;
8113;SDS011;4099;52.684;9.918;2022-11-15T07:01:27;17.20;;;11.50;;
8113;SDS011;4099;52.684;9.918;2022-11-15T07:06:56;15.23;;;9.90;;
8113;SDS011;4099;52.684;9.918;2022-11-15T07:12:19;16.67;;;12.03;;
8113;SDS011;4099;52.684;9.918;2022-11-15T07:17:47;18.20;;;12.27;;
8113;SDS011;4099;52.684;9.918;2022-11-15T07:23:08;18.50;;;12.27;;
8113;SDS011;4099;52.684;9.918;2022-11-15T07:28:36;21.17;;;12.67;;
8113;SDS011;4099;52.684;9.918;2022-11-15T07:34:35;19.97;;;12.17;;
8113;SDS011;4099;52.684;9.918;2022-11-15T07:39:53;15.23;;;10.73;;
8113;SDS011;4099;52.684;9.918;2022-11-15T07:45:22;14.60;;;9.77;;
8113;SDS011;4099;52.684;9.918;2022-11-15T07:50:52;14.03;;;10.03;;
8113;SDS011;4099;52.684;9.918;2022-11-15T07:56:17;14.00;;;10.63;;
8113;SDS011;4099;52.684;9.918;2022-11-15T08:01:50;15.30;;;10.67;;
8113;SDS011;4099;52.684;9.918;2022-11-15T08:07:15;14.07;;;9.87;;
8113;SDS011;4099;52.684;9.918;2022-11-15T08:12:54;12.20;;;9.83;;
8113;SDS011;4099;52.684;9.918;2022-11-15T08:18:29;11.40;;;8.93;;
8113;SDS011;4099;52.684;9.918;2022-11-15T08:23:56;11.13;;;8.97;;
8113;SDS011;4099;52.684;9.918;2022-11-15T08:29:18;11.10;;;8.60;;
8113;SDS011;4099;52.684;9.918;2022-11-15T08:34:45;10.13;;;8.80;;
8113;SDS011;4099;52.684;9.918;2022-11-15T08:40:21;10.07;;;8.93;;
8113;SDS011;4099;52.684;9.918;2022-11-15T08:45:43;11.43;;;9.23;;
8113;SDS011;4099;52.684;9.918;2022-11-15T08:51:08;12.90;;;9.80;;
8113;SDS011;4099;52.684;9.918;2022-11-15T08:56:37;9.07;;;8.13;;
8113;SDS011;4099;52.684;9.918;2022-11-15T09:02:00;10.17;;;8.47;;
8113;SDS011;4099;52.684;9.918;2022-11-15T09:07:37;9.43;;;8.17;;
8113;SDS011;4099;52.684;9.918;2022-11-15T09:13:04;11.83;;;8.73;;
8113;SDS011;4099;52.684;9.918;2022-11-15T09:18:29;13.47;;;9.20;;
8113;SDS011;4099;52.684;9.918;2022-11-15T09:23:53;10.83;;;7.60;;
8113;SDS011;4099;52.684;9.918;2022-11-15T09:29:15;8.73;;;7.50;;
8113;SDS011;4099;52.684;9.918;2022-11-15T09:34:40;8.70;;;7.80;;
8113;SDS011;4099;52.684;9.918;2022-11-15T09:40:09;11.50;;;9.90;;
8113;SDS011;4099;52.684;9.918;2022-11-15T09:45:47;11.53;;;9.30;;
8113;SDS011;4099;52.684;9.918;2022-11-15T09:51:30;9.90;;;7.90;;
8113;SDS011;4099;52.684;9.918;2022-11-15T09:56:51;5.83;;;5.27;;
8113;SDS011;4099;52.684;9.918;2022-11-15T10:02:01;7.83;;;5.40;;
8113;SDS011;4099;52.684;9.918;2022-11-15T10:07:16;6.27;;;4.97;;
8113;SDS011;4099;52.684;9.918;2022-11-15T10:12:27;5.80;;;4.30;;
8113;SDS011;4099;52.684;9.918;2022-11-15T10:17:43;5.07;;;4.57;;
8113;SDS011;4099;52.684;9.918;2022-11-15T10:23:10;6.57;;;4.37;;
8113;SDS011;4099;52.684;9.918;2022-11-15T10:28:25;8.17;;;7.47;;
8113;SDS011;4099;52.684;9.918;2022-11-15T10:33:34;7.57;;;5.93;;
8113;SDS011;4099;52.684;9.918;2022-11-15T10:38:50;7.57;;;6.87;;
8113;SDS011;4099;52.684;9.918;2022-11-15T10:44:08;8.47;;;7.67;;
8113;SDS011;4099;52.684;9.918;2022-11-15T10:49:26;6.30;;;5.80;;
8113;SDS011;4099;52.684;9.918;2022-11-15T10:54:40;9.47;;;5.30;;
8113;SDS011;4099;52.684;9.918;2022-11-15T10:59:53;5.20;;;3.63;;
8113;SDS011;4099;52.684;9.918;2022-11-15T11:05:25;3.50;;;3.20;;
8113;SDS011;4099;52.684;9.918;2022-11-15T11:10:32;5.77;;;4.70;;
8113;SDS011;4099;52.684;9.918;2022-11-15T11:15:44;4.17;;;3.77;;
8113;SDS011;4099;52.684;9.918;2022-11-15T11:20:57;5.77;;;5.07;;
8113;SDS011;4099;52.684;9.918;2022-11-15T11:26:23;4.30;;;3.90;;
8113;SDS011;4099;52.684;9.918;2022-11-15T11:31:53;6.23;;;4.43;;
8113;SDS011;4099;52.684;9.918;2022-11-15T11:37:04;5.27;;;4.77;;
8113;SDS011;4099;52.684;9.918;2022-11-15T11:42:29;6.17;;;4.73;;
8113;SDS011;4099;52.684;9.918;2022-11-15T11:47:43;5.60;;;5.10;;
8113;SDS011;4099;52.684;9.918;2022-11-15T11:53:01;6.97;;;6.27;;
8113;SDS011;4099;52.684;9.918;2022-11-15T11:58:13;6.43;;;4.20;;
8113;SDS011;4099;52.684;9.918;2022-11-15T12:03:30;4.80;;;3.80;;
8113;SDS011;4099;52.684;9.918;2022-11-15T12:08:48;8.03;;;4.67;;
8113;SDS011;4099;52.684;9.918;2022-11-15T12:13:58;8.47;;;5.17;;
8113;SDS011;4099;52.684;9.918;2022-11-15T12:19:17;6.33;;;4.50;;
8113;SDS011;4099;52.684;9.918;2022-11-15T12:24:28;5.17;;;4.27;;
8113;SDS011;4099;52.684;9.918;2022-11-15T12:29:42;6.60;;;3.90;;
8113;SDS011;4099;52.684;9.918;2022-11-15T12:35:04;5.90;;;3.70;;
8113;SDS011;4099;52.684;9.918;2022-11-15T12:40:33;4.63;;;3.90;;
8113;SDS011;4099;52.684;9.918;2022-11-15T12:45:49;5.57;;;4.53;;
8113;SDS011;4099;52.684;9.918;2022-11-15T12:50:59;5.60;;;4.20;;
8113;SDS011;4099;52.684;9.918;2022-11-15T12:56:17;6.57;;;3.30;;
8113;SDS011;4099;52.684;9.918;2022-11-15T13:07:07;4.80;;;3.70;;
8113;SDS011;4099;52.684;9.918;2022-11-15T13:12:51;5.70;;;4.70;;
8113;SDS011;4099;52.684;9.918;2022-11-15T13:23:42;5.33;;;4.83;;
8113;SDS011;4099;52.684;9.918;2022-11-15T13:28:53;5.23;;;3.73;;
8113;SDS011;4099;52.684;9.918;2022-11-15T13:34:01;5.43;;;3.30;;
8113;SDS011;4099;52.684;9.918;2022-11-15T13:39:33;3.83;;;2.97;;
8113;SDS011;4099;52.684;9.918;2022-11-15T13:44:41;3.40;;;3.10;;
8113;SDS011;4099;52.684;9.918;2022-11-15T13:49:58;4.50;;;3.90;;
8113;SDS011;4099;52.684;9.918;2022-11-15T13:55:11;5.60;;;4.13;;
8113;SDS011;4099;52.684;9.918;2022-11-15T14:00:33;5.33;;;4.83;;
8113;SDS011;4099;52.684;9.918;2022-11-15T14:05:46;3.73;;;3.40;;
8113;SDS011;4099;52.684;9.918;2022-11-15T14:11:20;3.50;;;3.20;;
8113;SDS011;4099;52.684;9.918;2022-11-15T14:16:33;3.80;;;3.10;;
8113;SDS011;4099;52.684;9.918;2022-11-15T14:27:24;3.60;;;3.30;;
8113;SDS011;4099;52.684;9.918;2022-11-15T14:32:37;3.53;;;3.23;;
8113;SDS011;4099;52.684;9.918;2022-11-15T14:37:49;5.50;;;3.83;;
8113;SDS011;4099;52.684;9.918;2022-11-15T14:43:07;4.03;;;3.63;;
8113;SDS011;4099;52.684;9.918;2022-11-15T14:48:22;4.27;;;3.87;;
8113;SDS011;4099;52.684;9.918;2022-11-15T14:53:36;7.60;;;6.80;;
8113;SDS011;4099;52.684;9.918;2022-11-15T14:58:42;5.73;;;5.17;;
8113;SDS011;4099;52.684;9.918;2022-11-15T15:03:46;6.67;;;4.30;;
8113;SDS011;4099;52.684;9.918;2022-11-15T15:08:56;4.87;;;4.40;;
8113;SDS011;4099;52.684;9.918;2022-11-15T15:14:04;4.70;;;4.20;;
8113;SDS011;4099;52.684;9.918;2022-11-15T15:19:08;4.37;;;3.97;;
8113;SDS011;4099;52.684;9.918;2022-11-15T15:24:17;4.43;;;3.87;;
8113;SDS011;4099;52.684;9.918;2022-11-15T15:29:22;4.30;;;3.90;;
8113;SDS011;4099;52.684;9.918;2022-11-15T15:34:33;4.57;;;4.17;;
8113;SDS011;4099;52.684;9.918;2022-11-15T15:39:44;5.00;;;4.50;;
8113;SDS011;4099;52.684;9.918;2022-11-15T15:44:53;8.40;;;4.93;;
8113;SDS011;4099;52.684;9.918;2022-11-15T15:49:58;5.80;;;5.20;;
8113;SDS011;4099;52.684;9.918;2022-11-15T15:55:01;6.10;;;5.57;;
8113;SDS011;4099;52.684;9.918;2022-11-15T16:00:11;6.20;;;5.07;;
8113;SDS011;4099;52.684;9.918;2022-11-15T16:05:38;5.37;;;4.50;;
8113;SDS011;4099;52.684;9.918;2022-11-15T16:10:45;5.60;;;5.00;;
8113;SDS011;4099;52.684;9.918;2022-11-15T16:15:54;6.60;;;5.90;;
8113;SDS011;4099;52.684;9.918;2022-11-15T16:20:57;9.93;;;7.63;;
8113;SDS011;4099;52.684;9.918;2022-11-15T16:26:00;9.10;;;6.97;;
8113;SDS011;4099;52.684;9.918;2022-11-15T16:31:05;7.97;;;5.60;;
8113;SDS011;4099;52.684;9.918;2022-11-15T16:36:14;6.57;;;5.87;;
8113;SDS011;4099;52.684;9.918;2022-11-15T16:41:21;7.60;;;5.77;;
8113;SDS011;4099;52.684;9.918;2022-11-15T16:46:26;8.67;;;7.13;;
8113;SDS011;4099;52.684;9.918;2022-11-15T16:51:29;6.27;;;5.67;;
8113;SDS011;4099;52.684;9.918;2022-11-15T16:56:32;6.40;;;5.80;;
8113;SDS011;4099;52.684;9.918;2022-11-15T17:01:38;7.80;;;6.27;;
8113;SDS011;4099;52.684;9.918;2022-11-15T17:06:59;7.57;;;6.27;;
8113;SDS011;4099;52.684;9.918;2022-11-15T17:12:04;8.07;;;6.07;;
8113;SDS011;4099;52.684;9.918;2022-11-15T17:17:09;6.90;;;6.00;;
8113;SDS011;4099;52.684;9.918;2022-11-15T17:22:13;7.37;;;6.00;;
8113;SDS011;4099;52.684;9.918;2022-11-15T17:27:19;8.37;;;6.33;;
8113;SDS011;4099;52.684;9.918;2022-11-15T17:32:24;7.70;;;6.90;;
8113;SDS011;4099;52.684;9.918;2022-11-15T17:37:33;8.70;;;6.50;;
8113;SDS011;4099;52.684;9.918;2022-11-15T17:42:39;8.17;;;6.40;;
8113;SDS011;4099;52.684;9.918;2022-11-15T17:47:48;9.13;;;6.73;;
8113;SDS011;4099;52.684;9.918;2022-11-15T17:53:00;9.07;;;7.23;;
8113;SDS011;4099;52.684;9.918;2022-11-15T17:58:04;10.30;;;8.10;;
8113;SDS011;4099;52.684;9.918;2022-11-15T18:03:14;10.43;;;8.20;;
8113;SDS011;4099;52.684;9.918;2022-11-15T18:08:17;11.87;;;8.57;;
8113;SDS011;4099;52.684;9.918;2022-11-15T18:13:25;9.93;;;7.50;;
8113;SDS011;4099;52.684;9.918;2022-11-15T18:18:31;13.37;;;10.87;;
8113;SDS011;4099;52.684;9.918;2022-11-15T18:23:39;11.93;;;8.80;;
8113;SDS011;4099;52.684;9.918;2022-11-15T18:28:44;13.67;;;9.13;;
8113;SDS011;4099;52.684;9.918;2022-11-15T18:33:50;9.70;;;8.53;;
8113;SDS011;4099;52.684;9.918;2022-11-15T18:38:56;11.70;;;8.33;;
8113;SDS011;4099;52.684;9.918;2022-11-15T18:44:01;10.20;;;7.63;;
8113;SDS011;4099;52.684;9.918;2022-11-15T18:49:09;8.27;;;7.30;;
8113;SDS011;4099;52.684;9.918;2022-11-15T18:54:15;11.53;;;8.27;;
8113;SDS011;4099;52.684;9.918;2022-11-15T18:59:18;11.70;;;8.17;;
8113;SDS011;4099;52.684;9.918;2022-11-15T19:04:24;10.90;;;9.17;;
8113;SDS011;4099;52.684;9.918;2022-11-15T19:09:27;11.03;;;8.90;;
8113;SDS011;4099;52.684;9.918;2022-11-15T19:14:33;10.30;;;9.00;;
8113;SDS011;4099;52.684;9.918;2022-11-15T19:19:41;11.77;;;9.30;;
8113;SDS011;4099;52.684;9.918;2022-11-15T19:24:44;9.83;;;7.93;;
8113;SDS011;4099;52.684;9.918;2022-11-15T19:29:48;9.93;;;8.13;;
8113;SDS011;4099;52.684;9.918;2022-11-15T19:34:53;10.73;;;8.03;;
8113;SDS011;4099;52.684;9.918;2022-11-15T19:39:57;9.50;;;7.60;;
8113;SDS011;4099;52.684;9.918;2022-11-15T19:44:59;9.80;;;8.17;;
8113;SDS011;4099;52.684;9.918;2022-11-15T19:50:05;8.80;;;7.90;;
8113;SDS011;4099;52.684;9.918;2022-11-15T19:55:11;9.73;;;8.50;;
8113;SDS011;4099;52.684;9.918;2022-11-15T20:00:17;9.97;;;8.40;;
8113;SDS011;4099;52.684;9.918;2022-11-15T20:05:22;10.57;;;8.53;;
8113;SDS011;4099;52.684;9.918;2022-11-15T20:10:26;8.47;;;7.17;;
8113;SDS011;4099;52.684;9.918;2022-11-15T20:15:31;9.03;;;7.23;;
8113;SDS011;4099;52.684;9.918;2022-11-15T20:20:35;9.13;;;7.73;;
8113;SDS011;4099;52.684;9.918;2022-11-15T20:25:37;9.27;;;7.60;;
8113;SDS011;4099;52.684;9.918;2022-11-15T20:30:41;8.17;;;6.83;;
8113;SDS011;4099;52.684;9.918;2022-11-15T20:35:45;8.67;;;7.20;;
8113;SDS011;4099;52.684;9.918;2022-11-15T20:40:48;9.10;;;7.10;;
8113;SDS011;4099;52.684;9.918;2022-11-15T20:45:53;11.93;;;7.53;;
8113;SDS011;4099;52.684;9.918;2022-11-15T20:51:03;8.30;;;6.97;;
8113;SDS011;4099;52.684;9.918;2022-11-15T20:56:09;7.13;;;6.23;;
8113;SDS011;4099;52.684;9.918;2022-11-15T21:01:13;7.60;;;5.90;;
8113;SDS011;4099;52.684;9.918;2022-11-15T21:06:24;7.30;;;6.07;;
8113;SDS011;4099;52.684;9.918;2022-11-15T21:11:27;6.97;;;5.90;;
8113;SDS011;4099;52.684;9.918;2022-11-15T21:16:47;11.47;;;7.30;;
8113;SDS011;4099;52.684;9.918;2022-11-15T21:21:51;9.73;;;6.67;;
8113;SDS011;4099;52.684;9.918;2022-11-15T21:26:54;9.30;;;6.50;;
8113;SDS011;4099;52.684;9.918;2022-11-15T21:32:00;11.57;;;9.63;;
8113;SDS011;4099;52.684;9.918;2022-11-15T21:37:05;8.00;;;6.47;;
8113;SDS011;4099;52.684;9.918;2022-11-15T21:42:08;6.97;;;6.27;;
8113;SDS011;4099;52.684;9.918;2022-11-15T21:47:16;7.97;;;6.53;;
8113;SDS011;4099;52.684;9.918;2022-11-15T21:52:20;8.40;;;6.57;;
8113;SDS011;4099;52.684;9.918;2022-11-15T21:57:24;8.87;;;6.60;;
8113;SDS011;4099;52.684;9.918;2022-11-15T22:02:29;9.80;;;6.77;;
8113;SDS011;4099;52.684;9.918;2022-11-15T22:07:34;8.67;;;7.13;;
8113;SDS011;4099;52.684;9.918;2022-11-15T22:12:38;7.60;;;6.77;;
8113;SDS011;4099;52.684;9.918;2022-11-15T22:17:43;8.60;;;7.23;;
8113;SDS011;4099;52.684;9.918;2022-11-15T22:22:59;7.87;;;6.50;;
8113;SDS011;4099;52.684;9.918;2022-11-15T22:28:03;7.73;;;6.83;;
8113;SDS011;4099;52.684;9.918;2022-11-15T22:33:06;8.27;;;7.20;;
8113;SDS011;4099;52.684;9.918;2022-11-15T22:38:13;9.77;;;8.43;;
8113;SDS011;4099;52.684;9.918;2022-11-15T22:43:17;10.10;;;8.63;;
8113;SDS011;4099;52.684;9.918;2022-11-15T22:48:21;9.93;;;7.13;;
8113;SDS011;4099;52.684;9.918;2022-11-15T22:53:26;8.13;;;7.13;;
8113;SDS011;4099;52.684;9.918;2022-11-15T22:58:33;9.30;;;7.50;;
8113;SDS011;4099;52.684;9.918;2022-11-15T23:03:39;12.07;;;9.03;;
8113;SDS011;4099;52.684;9.918;2022-11-15T23:08:44;13.97;;;9.30;;
8113;SDS011;4099;52.684;9.918;2022-11-15T23:13:47;10.70;;;8.53;;
8113;SDS011;4099;52.684;9.918;2022-11-15T23:18:58;15.30;;;13.63;;
8113;SDS011;4099;52.684;9.918;2022-11-15T23:24:07;11.60;;;10.50;;
8113;SDS011;4099;52.684;9.918;2022-11-15T23:29:12;10.60;;;9.40;;
8113;SDS011;4099;52.684;9.918;2022-11-15T23:34:17;10.77;;;9.33;;
8113;SDS011;4099;52.684;9.918;2022-11-15T23:39:22;9.63;;;8.63;;
8113;SDS011;4099;52.684;9.918;2022-11-15T23:44:27;12.23;;;10.47;;
8113;SDS011;4099;52.684;9.918;2022-11-15T23:49:30;9.80;;;8.80;;
8113;SDS011;4099;52.684;9.918;2022-11-15T23:54:35;8.90;;;6.47;;
8113;SDS011;4099;52.684;9.918;2022-11-15T23:59:37;8.97;;;7.63;;
